sensor_id;sensor_type;location;lat;lon;timestamp;temperature;humidity
21275;DHT22;36472;52.170;20.884;2024-01-15T00:00:08;25.60;35.30
21275;DHT22;36472;52.170;20.884;2024-01-15T00:02:39;25.70;34.70
21275;DHT22;36472;52.170;20.884;2024-01-15T00:05:08;25.70;34.60
21275;DHT22;36472;52.170;20.884;2024-01-15T00:07:38;25.80;34.60
21275;DHT22;36472;52.170;20.884;2024-01-15T00:10:07;25.70;34.40
21275;DHT22;36472;52.170;20.884;2024-01-15T00:12:38;25.80;34.60
21275;DHT22;36472;52.170;20.884;2024-01-15T00:15:08;25.80;34.70
21275;DHT22;36472;52.170;20.884;2024-01-15T00:17:38;25.80;35.30
21275;DHT22;36472;52.170;20.884;2024-01-15T00:20:07;25.80;34.60
21275;DHT22;36472;52.170;20.884;2024-01-15T00:22:37;25.80;34.60
21275;DHT22;36472;52.170;20.884;2024-01-15T00:25:06;25.80;34.60
21275;DHT22;36472;52.170;20.884;2024-01-15T00:27:35;25.70;34.40
21275;DHT22;36472;52.170;20.884;2024-01-15T00:30:07;25.70;34.40
21275;DHT22;36472;52.170;20.884;2024-01-15T00:32:37;25.70;34.50
21275;DHT22;36472;52.170;20.884;2024-01-15T00:35:06;25.70;34.30
21275;DHT22;36472;52.170;20.884;2024-01-15T00:37:35;25.70;34.40
21275;DHT22;36472;52.170;20.884;2024-01-15T00:40:05;25.70;34.50
21275;DHT22;36472;52.170;20.884;2024-01-15T00:42:37;25.70;34.50
21275;DHT22;36472;52.170;20.884;2024-01-15T00:45:08;25.70;34.50
21275;DHT22;36472;52.170;20.884;2024-01-15T00:47:38;25.70;34.60
21275;DHT22;36472;52.170;20.884;2024-01-15T00:50:08;25.70;34.70
21275;DHT22;36472;52.170;20.884;2024-01-15T00:52:37;25.70;34.80
21275;DHT22;36472;52.170;20.884;2024-01-15T00:55:07;25.70;34.90
21275;DHT22;36472;52.170;20.884;2024-01-15T00:57:36;25.70;34.90
21275;DHT22;36472;52.170;20.884;2024-01-15T01:00:07;25.70;35.00
21275;DHT22;36472;52.170;20.884;2024-01-15T01:02:37;25.70;35.00
21275;DHT22;36472;52.170;20.884;2024-01-15T01:05:07;25.70;35.00
21275;DHT22;36472;52.170;20.884;2024-01-15T01:07:36;25.70;35.10
21275;DHT22;36472;52.170;20.884;2024-01-15T01:10:05;25.70;35.10
21275;DHT22;36472;52.170;20.884;2024-01-15T01:12:35;25.70;35.20
21275;DHT22;36472;52.170;20.884;2024-01-15T01:15:07;25.70;35.10
21275;DHT22;36472;52.170;20.884;2024-01-15T01:17:36;25.70;35.10
21275;DHT22;36472;52.170;20.884;2024-01-15T01:20:06;25.60;35.20
21275;DHT22;36472;52.170;20.884;2024-01-15T01:22:39;25.60;35.10
21275;DHT22;36472;52.170;20.884;2024-01-15T01:25:08;25.50;35.20
21275;DHT22;36472;52.170;20.884;2024-01-15T01:27:37;25.60;35.30
21275;DHT22;36472;52.170;20.884;2024-01-15T01:30:09;25.60;35.30
21275;DHT22;36472;52.170;20.884;2024-01-15T01:32:38;25.50;35.20
21275;DHT22;36472;52.170;20.884;2024-01-15T01:35:07;25.50;35.20
21275;DHT22;36472;52.170;20.884;2024-01-15T01:37:36;25.50;35.20
21275;DHT22;36472;52.170;20.884;2024-01-15T01:40:06;25.40;35.30
21275;DHT22;36472;52.170;20.884;2024-01-15T01:42:36;25.30;35.40
21275;DHT22;36472;52.170;20.884;2024-01-15T01:45:08;25.20;35.40
21275;DHT22;36472;52.170;20.884;2024-01-15T01:47:37;25.30;35.50
21275;DHT22;36472;52.170;20.884;2024-01-15T01:50:07;25.40;35.40
21275;DHT22;36472;52.170;20.884;2024-01-15T01:52:37;25.40;35.40
21275;DHT22;36472;52.170;20.884;2024-01-15T01:55:06;25.40;35.30
21275;DHT22;36472;52.170;20.884;2024-01-15T01:57:38;25.40;35.30
21275;DHT22;36472;52.170;20.884;2024-01-15T02:00:10;25.50;35.30
21275;DHT22;36472;52.170;20.884;2024-01-15T02:02:40;25.50;35.20
21275;DHT22;36472;52.170;20.884;2024-01-15T02:05:10;25.50;35.10
21275;DHT22;36472;52.170;20.884;2024-01-15T02:07:41;25.50;35.10
21275;DHT22;36472;52.170;20.884;2024-01-15T02:10:10;25.50;35.10
21275;DHT22;36472;52.170;20.884;2024-01-15T02:12:39;25.50;35.00
21275;DHT22;36472;52.170;20.884;2024-01-15T02:15:09;25.50;35.00
21275;DHT22;36472;52.170;20.884;2024-01-15T02:17:57;25.50;34.90
21275;DHT22;36472;52.170;20.884;2024-01-15T02:20:27;25.50;34.80
21275;DHT22;36472;52.170;20.884;2024-01-15T02:23:06;25.60;35.00
21275;DHT22;36472;52.170;20.884;2024-01-15T02:25:38;25.60;34.90
21275;DHT22;36472;52.170;20.884;2024-01-15T02:28:09;25.60;34.90
21275;DHT22;36472;52.170;20.884;2024-01-15T02:30:40;25.60;34.80
21275;DHT22;36472;52.170;20.884;2024-01-15T02:33:11;25.60;34.60
21275;DHT22;36472;52.170;20.884;2024-01-15T02:35:41;25.60;34.80
21275;DHT22;36472;52.170;20.884;2024-01-15T02:38:11;25.60;34.70
21275;DHT22;36472;52.170;20.884;2024-01-15T02:40:40;25.60;34.60
21275;DHT22;36472;52.170;20.884;2024-01-15T02:43:10;25.50;34.50
21275;DHT22;36472;52.170;20.884;2024-01-15T02:45:39;25.60;34.70
21275;DHT22;36472;52.170;20.884;2024-01-15T02:48:08;25.60;34.70
21275;DHT22;36472;52.170;20.884;2024-01-15T02:50:37;25.60;34.70
21275;DHT22;36472;52.170;20.884;2024-01-15T02:53:06;25.50;34.60
21275;DHT22;36472;52.170;20.884;2024-01-15T02:55:37;25.60;34.70
21275;DHT22;36472;52.170;20.884;2024-01-15T02:58:06;25.60;34.80
21275;DHT22;36472;52.170;20.884;2024-01-15T03:00:36;25.50;34.60
21275;DHT22;36472;52.170;20.884;2024-01-15T03:03:05;25.60;34.70
21275;DHT22;36472;52.170;20.884;2024-01-15T03:05:34;25.50;34.40
21275;DHT22;36472;52.170;20.884;2024-01-15T03:08:04;25.50;34.60
21275;DHT22;36472;52.170;20.884;2024-01-15T03:10:33;25.50;34.50
21275;DHT22;36472;52.170;20.884;2024-01-15T03:13:03;25.60;34.90
21275;DHT22;36472;52.170;20.884;2024-01-15T03:15:32;25.50;34.90
21275;DHT22;36472;52.170;20.884;2024-01-15T03:18:01;25.50;35.10
21275;DHT22;36472;52.170;20.884;2024-01-15T03:20:30;25.40;35.10
21275;DHT22;36472;52.170;20.884;2024-01-15T03:22:59;25.40;35.10
21275;DHT22;36472;52.170;20.884;2024-01-15T03:25:29;25.40;35.10
21275;DHT22;36472;52.170;20.884;2024-01-15T03:27:58;25.40;35.20
21275;DHT22;36472;52.170;20.884;2024-01-15T03:30:28;25.40;35.20
21275;DHT22;36472;52.170;20.884;2024-01-15T03:32:57;25.40;35.20
21275;DHT22;36472;52.170;20.884;2024-01-15T03:35:26;25.30;35.10
21275;DHT22;36472;52.170;20.884;2024-01-15T03:37:57;25.30;35.20
21275;DHT22;36472;52.170;20.884;2024-01-15T03:40:26;25.20;35.20
21275;DHT22;36472;52.170;20.884;2024-01-15T03:42:55;25.30;35.10
21275;DHT22;36472;52.170;20.884;2024-01-15T03:45:24;25.10;35.00
21275;DHT22;36472;52.170;20.884;2024-01-15T03:47:54;25.20;35.20
21275;DHT22;36472;52.170;20.884;2024-01-15T03:50:23;25.20;35.30
21275;DHT22;36472;52.170;20.884;2024-01-15T03:52:52;25.30;35.20
21275;DHT22;36472;52.170;20.884;2024-01-15T03:55:21;25.30;35.20
21275;DHT22;36472;52.170;20.884;2024-01-15T03:57:50;25.40;35.20
21275;DHT22;36472;52.170;20.884;2024-01-15T04:00:19;25.30;35.00
21275;DHT22;36472;52.170;20.884;2024-01-15T04:02:49;25.30;35.00
21275;DHT22;36472;52.170;20.884;2024-01-15T04:05:19;25.40;35.00
21275;DHT22;36472;52.170;20.884;2024-01-15T04:07:48;25.30;34.90
21275;DHT22;36472;52.170;20.884;2024-01-15T04:10:17;25.40;34.80
21275;DHT22;36472;52.170;20.884;2024-01-15T04:12:46;25.40;34.80
21275;DHT22;36472;52.170;20.884;2024-01-15T04:15:15;25.40;34.70
21275;DHT22;36472;52.170;20.884;2024-01-15T04:17:44;25.40;34.60
21275;DHT22;36472;52.170;20.884;2024-01-15T04:20:13;25.40;34.70
21275;DHT22;36472;52.170;20.884;2024-01-15T04:22:44;25.30;34.70
21275;DHT22;36472;52.170;20.884;2024-01-15T04:25:13;25.40;34.60
21275;DHT22;36472;52.170;20.884;2024-01-15T04:27:42;25.40;34.60
21275;DHT22;36472;52.170;20.884;2024-01-15T04:30:11;25.50;34.60
21275;DHT22;36472;52.170;20.884;2024-01-15T04:32:41;25.50;34.50
21275;DHT22;36472;52.170;20.884;2024-01-15T04:35:10;25.50;34.50
21275;DHT22;36472;52.170;20.884;2024-01-15T04:37:40;25.50;34.30
21275;DHT22;36472;52.170;20.884;2024-01-15T04:40:11;25.50;34.40
21275;DHT22;36472;52.170;20.884;2024-01-15T04:42:40;25.50;34.30
21275;DHT22;36472;52.170;20.884;2024-01-15T04:45:09;25.50;34.30
21275;DHT22;36472;52.170;20.884;2024-01-15T04:47:38;25.40;33.90
21275;DHT22;36472;52.170;20.884;2024-01-15T04:50:08;25.30;34.20
21275;DHT22;36472;52.170;20.884;2024-01-15T04:52:37;25.40;34.50
21275;DHT22;36472;52.170;20.884;2024-01-15T04:55:06;25.30;34.40
21275;DHT22;36472;52.170;20.884;2024-01-15T04:57:37;25.40;34.50
21275;DHT22;36472;52.170;20.884;2024-01-15T05:00:07;25.30;34.40
21275;DHT22;36472;52.170;20.884;2024-01-15T05:02:37;25.30;34.50
21275;DHT22;36472;52.170;20.884;2024-01-15T05:05:06;25.40;35.10
21275;DHT22;36472;52.170;20.884;2024-01-15T05:07:36;25.30;34.30
21275;DHT22;36472;52.170;20.884;2024-01-15T05:10:05;25.40;34.30
21275;DHT22;36472;52.170;20.884;2024-01-15T05:12:37;25.50;34.30
21275;DHT22;36472;52.170;20.884;2024-01-15T05:15:06;25.50;34.30
21275;DHT22;36472;52.170;20.884;2024-01-15T05:17:37;25.50;34.30
21275;DHT22;36472;52.170;20.884;2024-01-15T05:20:07;25.50;34.30
21275;DHT22;36472;52.170;20.884;2024-01-15T05:22:37;25.50;34.40
21275;DHT22;36472;52.170;20.884;2024-01-15T05:25:06;25.50;34.20
21275;DHT22;36472;52.170;20.884;2024-01-15T05:27:37;25.40;34.00
21275;DHT22;36472;52.170;20.884;2024-01-15T05:30:06;25.30;34.10
21275;DHT22;36472;52.170;20.884;2024-01-15T05:32:36;25.20;34.20
21275;DHT22;36472;52.170;20.884;2024-01-15T05:35:05;25.20;34.30
21275;DHT22;36472;52.170;20.884;2024-01-15T05:37:35;25.20;34.00
21275;DHT22;36472;52.170;20.884;2024-01-15T05:40:04;25.20;34.30
21275;DHT22;36472;52.170;20.884;2024-01-15T05:42:34;25.20;34.20
21275;DHT22;36472;52.170;20.884;2024-01-15T05:45:05;25.20;34.30
21275;DHT22;36472;52.170;20.884;2024-01-15T05:47:34;25.20;34.10
21275;DHT22;36472;52.170;20.884;2024-01-15T05:50:04;25.20;34.20
21275;DHT22;36472;52.170;20.884;2024-01-15T05:52:34;25.20;34.10
21275;DHT22;36472;52.170;20.884;2024-01-15T05:55:04;25.30;34.00
21275;DHT22;36472;52.170;20.884;2024-01-15T05:57:33;25.10;34.10
21275;DHT22;36472;52.170;20.884;2024-01-15T06:00:05;25.00;34.10
21275;DHT22;36472;52.170;20.884;2024-01-15T06:02:37;25.10;34.40
21275;DHT22;36472;52.170;20.884;2024-01-15T06:05:06;25.20;34.40
21275;DHT22;36472;52.170;20.884;2024-01-15T06:07:36;25.30;34.40
21275;DHT22;36472;52.170;20.884;2024-01-15T06:10:06;25.30;34.40
21275;DHT22;36472;52.170;20.884;2024-01-15T06:12:35;25.30;34.30
21275;DHT22;36472;52.170;20.884;2024-01-15T06:15:06;25.40;34.20
21275;DHT22;36472;52.170;20.884;2024-01-15T06:17:36;25.20;34.00
21275;DHT22;36472;52.170;20.884;2024-01-15T06:20:07;25.10;34.10
21275;DHT22;36472;52.170;20.884;2024-01-15T06:22:38;25.20;34.10
21275;DHT22;36472;52.170;20.884;2024-01-15T06:25:07;25.30;35.10
21275;DHT22;36472;52.170;20.884;2024-01-15T06:27:37;25.30;34.50
21275;DHT22;36472;52.170;20.884;2024-01-15T06:30:09;25.40;34.40
21275;DHT22;36472;52.170;20.884;2024-01-15T06:32:39;25.30;34.20
21275;DHT22;36472;52.170;20.884;2024-01-15T06:35:08;25.20;34.00
21275;DHT22;36472;52.170;20.884;2024-01-15T06:37:39;25.30;33.90
21275;DHT22;36472;52.170;20.884;2024-01-15T06:40:09;25.20;33.90
21275;DHT22;36472;52.170;20.884;2024-01-15T06:42:38;25.20;33.90
21275;DHT22;36472;52.170;20.884;2024-01-15T06:45:09;25.30;34.00
21275;DHT22;36472;52.170;20.884;2024-01-15T06:47:38;25.40;33.90
21275;DHT22;36472;52.170;20.884;2024-01-15T06:50:08;25.40;33.80
21275;DHT22;36472;52.170;20.884;2024-01-15T06:52:37;25.40;33.70
21275;DHT22;36472;52.170;20.884;2024-01-15T06:55:06;25.40;33.60
21275;DHT22;36472;52.170;20.884;2024-01-15T06:57:36;25.40;33.70
21275;DHT22;36472;52.170;20.884;2024-01-15T07:00:06;25.30;33.50
21275;DHT22;36472;52.170;20.884;2024-01-15T07:02:38;25.30;33.60
21275;DHT22;36472;52.170;20.884;2024-01-15T07:05:07;25.10;33.50
21275;DHT22;36472;52.170;20.884;2024-01-15T07:07:37;25.20;33.80
21275;DHT22;36472;52.170;20.884;2024-01-15T07:10:07;25.20;33.90
21275;DHT22;36472;52.170;20.884;2024-01-15T07:12:36;25.10;34.20
21275;DHT22;36472;52.170;20.884;2024-01-15T07:15:06;25.20;34.20
21275;DHT22;36472;52.170;20.884;2024-01-15T07:17:37;25.10;34.00
21275;DHT22;36472;52.170;20.884;2024-01-15T07:20:08;25.00;34.40
21275;DHT22;36472;52.170;20.884;2024-01-15T07:22:38;25.10;34.60
21275;DHT22;36472;52.170;20.884;2024-01-15T07:25:07;25.20;34.60
21275;DHT22;36472;52.170;20.884;2024-01-15T07:27:36;25.20;34.70
21275;DHT22;36472;52.170;20.884;2024-01-15T07:30:06;25.20;34.70
21275;DHT22;36472;52.170;20.884;2024-01-15T07:32:38;25.20;34.60
21275;DHT22;36472;52.170;20.884;2024-01-15T07:35:08;25.20;34.70
21275;DHT22;36472;52.170;20.884;2024-01-15T07:37:38;25.10;34.70
21275;DHT22;36472;52.170;20.884;2024-01-15T07:40:07;25.20;34.80
21275;DHT22;36472;52.170;20.884;2024-01-15T07:42:38;25.20;34.80
21275;DHT22;36472;52.170;20.884;2024-01-15T07:45:07;25.20;34.60
21275;DHT22;36472;52.170;20.884;2024-01-15T07:47:38;25.00;34.60
21275;DHT22;36472;52.170;20.884;2024-01-15T07:50:07;25.20;34.60
21275;DHT22;36472;52.170;20.884;2024-01-15T07:52:37;25.30;34.60
21275;DHT22;36472;52.170;20.884;2024-01-15T07:55:06;25.20;34.50
21275;DHT22;36472;52.170;20.884;2024-01-15T07:57:35;24.70;34.50
21275;DHT22;36472;52.170;20.884;2024-01-15T08:00:05;24.90;34.90
21275;DHT22;36472;52.170;20.884;2024-01-15T08:02:38;25.00;34.60
21275;DHT22;36472;52.170;20.884;2024-01-15T08:05:07;25.00;34.60
21275;DHT22;36472;52.170;20.884;2024-01-15T08:07:36;25.00;34.80
21275;DHT22;36472;52.170;20.884;2024-01-15T08:10:06;25.00;34.90
21275;DHT22;36472;52.170;20.884;2024-01-15T08:12:35;25.00;34.90
21275;DHT22;36472;52.170;20.884;2024-01-15T08:15:05;25.10;35.00
21275;DHT22;36472;52.170;20.884;2024-01-15T08:17:34;25.00;34.90
21275;DHT22;36472;52.170;20.884;2024-01-15T08:20:05;24.90;34.80
21275;DHT22;36472;52.170;20.884;2024-01-15T08:22:35;24.80;34.80
21275;DHT22;36472;52.170;20.884;2024-01-15T08:25:04;24.70;34.80
21275;DHT22;36472;52.170;20.884;2024-01-15T08:27:34;24.70;34.80
21275;DHT22;36472;52.170;20.884;2024-01-15T08:30:03;24.70;34.80
21275;DHT22;36472;52.170;20.884;2024-01-15T08:32:33;24.80;35.00
21275;DHT22;36472;52.170;20.884;2024-01-15T08:35:06;24.90;35.00
21275;DHT22;36472;52.170;20.884;2024-01-15T08:37:35;24.90;34.90
21275;DHT22;36472;52.170;20.884;2024-01-15T08:40:05;25.00;34.60
21275;DHT22;36472;52.170;20.884;2024-01-15T08:42:35;25.00;34.80
21275;DHT22;36472;52.170;20.884;2024-01-15T08:45:05;25.10;35.00
21275;DHT22;36472;52.170;20.884;2024-01-15T08:47:34;25.30;35.10
21275;DHT22;36472;52.170;20.884;2024-01-15T08:50:06;25.30;35.10
21275;DHT22;36472;52.170;20.884;2024-01-15T08:52:38;25.40;35.00
21275;DHT22;36472;52.170;20.884;2024-01-15T08:55:07;25.30;35.00
21275;DHT22;36472;52.170;20.884;2024-01-15T08:57:36;25.30;35.10
21275;DHT22;36472;52.170;20.884;2024-01-15T09:00:06;25.20;34.90
21275;DHT22;36472;52.170;20.884;2024-01-15T09:02:36;25.10;35.00
21275;DHT22;36472;52.170;20.884;2024-01-15T09:05:07;25.10;34.90
21275;DHT22;36472;52.170;20.884;2024-01-15T09:07:37;24.90;34.50
21275;DHT22;36472;52.170;20.884;2024-01-15T09:10:07;24.80;34.30
21275;DHT22;36472;52.170;20.884;2024-01-15T09:12:36;24.80;34.50
21275;DHT22;36472;52.170;20.884;2024-01-15T09:15:06;24.80;34.40
21275;DHT22;36472;52.170;20.884;2024-01-15T09:17:36;24.90;34.30
21275;DHT22;36472;52.170;20.884;2024-01-15T09:20:08;24.90;34.10
21275;DHT22;36472;52.170;20.884;2024-01-15T09:22:38;25.10;34.00
21275;DHT22;36472;52.170;20.884;2024-01-15T09:25:08;24.90;33.80
21275;DHT22;36472;52.170;20.884;2024-01-15T09:27:37;25.10;33.90
21275;DHT22;36472;52.170;20.884;2024-01-15T09:30:07;25.00;33.60
21275;DHT22;36472;52.170;20.884;2024-01-15T09:32:37;25.10;33.60
21275;DHT22;36472;52.170;20.884;2024-01-15T09:35:08;25.20;33.20
21275;DHT22;36472;52.170;20.884;2024-01-15T09:37:39;25.20;33.00
21275;DHT22;36472;52.170;20.884;2024-01-15T09:40:15;25.30;33.10
21275;DHT22;36472;52.170;20.884;2024-01-15T09:42:44;25.40;32.70
21275;DHT22;36472;52.170;20.884;2024-01-15T09:45:15;25.30;32.40
21275;DHT22;36472;52.170;20.884;2024-01-15T09:47:45;25.50;33.00
21275;DHT22;36472;52.170;20.884;2024-01-15T09:50:16;25.30;32.20
21275;DHT22;36472;52.170;20.884;2024-01-15T09:52:46;25.20;32.20
21275;DHT22;36472;52.170;20.884;2024-01-15T09:55:17;25.40;32.40
21275;DHT22;36472;52.170;20.884;2024-01-15T09:57:47;25.40;32.20
21275;DHT22;36472;52.170;20.884;2024-01-15T10:00:18;25.40;32.20
21275;DHT22;36472;52.170;20.884;2024-01-15T10:02:47;25.30;31.90
21275;DHT22;36472;52.170;20.884;2024-01-15T10:05:18;25.20;31.80
21275;DHT22;36472;52.170;20.884;2024-01-15T10:07:48;25.10;31.80
21275;DHT22;36472;52.170;20.884;2024-01-15T10:10:18;25.00;32.30
21275;DHT22;36472;52.170;20.884;2024-01-15T10:12:49;25.30;32.40
21275;DHT22;36472;52.170;20.884;2024-01-15T10:15:22;25.40;32.20
21275;DHT22;36472;52.170;20.884;2024-01-15T10:17:52;25.30;31.80
21275;DHT22;36472;52.170;20.884;2024-01-15T10:20:22;25.40;31.90
21275;DHT22;36472;52.170;20.884;2024-01-15T10:22:52;24.90;31.70
21275;DHT22;36472;52.170;20.884;2024-01-15T10:25:20;25.20;32.20
21275;DHT22;36472;52.170;20.884;2024-01-15T10:28:00;25.30;32.00
21275;DHT22;36472;52.170;20.884;2024-01-15T10:30:30;25.40;32.10
21275;DHT22;36472;52.170;20.884;2024-01-15T10:33:02;25.20;31.90
21275;DHT22;36472;52.170;20.884;2024-01-15T10:35:34;25.00;32.70
21275;DHT22;36472;52.170;20.884;2024-01-15T10:38:05;25.20;32.60
21275;DHT22;36472;52.170;20.884;2024-01-15T10:40:34;25.00;32.70
21275;DHT22;36472;52.170;20.884;2024-01-15T10:43:04;25.20;32.70
21275;DHT22;36472;52.170;20.884;2024-01-15T10:45:33;25.00;32.40
21275;DHT22;36472;52.170;20.884;2024-01-15T10:48:02;25.20;32.70
21275;DHT22;36472;52.170;20.884;2024-01-15T10:50:34;25.20;32.90
21275;DHT22;36472;52.170;20.884;2024-01-15T10:53:04;25.50;32.90
21275;DHT22;36472;52.170;20.884;2024-01-15T10:55:33;25.60;32.10
21275;DHT22;36472;52.170;20.884;2024-01-15T10:58:04;25.60;32.20
21275;DHT22;36472;52.170;20.884;2024-01-15T11:00:35;25.60;32.10
21275;DHT22;36472;52.170;20.884;2024-01-15T11:03:06;25.60;32.30
21275;DHT22;36472;52.170;20.884;2024-01-15T11:05:38;25.40;32.20
21275;DHT22;36472;52.170;20.884;2024-01-15T11:08:08;25.50;32.20
21275;DHT22;36472;52.170;20.884;2024-01-15T11:10:38;25.50;32.30
21275;DHT22;36472;52.170;20.884;2024-01-15T11:13:10;25.50;32.30
21275;DHT22;36472;52.170;20.884;2024-01-15T11:15:58;25.60;32.60
21275;DHT22;36472;52.170;20.884;2024-01-15T11:18:29;25.60;32.40
21275;DHT22;36472;52.170;20.884;2024-01-15T11:21:24;25.60;33.00
21275;DHT22;36472;52.170;20.884;2024-01-15T11:23:57;25.50;32.30
21275;DHT22;36472;52.170;20.884;2024-01-15T11:26:31;25.50;32.20
21275;DHT22;36472;52.170;20.884;2024-01-15T11:29:03;25.70;32.30
21275;DHT22;36472;52.170;20.884;2024-01-15T11:31:56;25.60;31.80
21275;DHT22;36472;52.170;20.884;2024-01-15T11:34:51;25.50;31.90
21275;DHT22;36472;52.170;20.884;2024-01-15T11:37:29;25.60;32.40
21275;DHT22;36472;52.170;20.884;2024-01-15T11:40:18;25.70;32.30
21275;DHT22;36472;52.170;20.884;2024-01-15T11:42:48;25.70;32.20
21275;DHT22;36472;52.170;20.884;2024-01-15T11:45:20;25.70;32.40
21275;DHT22;36472;52.170;20.884;2024-01-15T11:48:11;25.50;32.30
21275;DHT22;36472;52.170;20.884;2024-01-15T11:50:43;25.40;32.60
21275;DHT22;36472;52.170;20.884;2024-01-15T11:53:27;25.50;33.70
21275;DHT22;36472;52.170;20.884;2024-01-15T11:56:03;25.50;33.20
21275;DHT22;36472;52.170;20.884;2024-01-15T11:58:39;25.60;33.00
21275;DHT22;36472;52.170;20.884;2024-01-15T12:01:10;25.50;32.90
21275;DHT22;36472;52.170;20.884;2024-01-15T12:03:39;25.40;32.90
21275;DHT22;36472;52.170;20.884;2024-01-15T12:06:09;25.30;33.00
21275;DHT22;36472;52.170;20.884;2024-01-15T12:08:40;25.50;33.00
21275;DHT22;36472;52.170;20.884;2024-01-15T12:11:13;25.40;33.00
21275;DHT22;36472;52.170;20.884;2024-01-15T12:13:47;25.40;33.20
21275;DHT22;36472;52.170;20.884;2024-01-15T12:16:16;25.40;33.30
21275;DHT22;36472;52.170;20.884;2024-01-15T12:18:45;25.20;33.30
21275;DHT22;36472;52.170;20.884;2024-01-15T12:21:14;25.20;33.70
21275;DHT22;36472;52.170;20.884;2024-01-15T12:23:47;25.00;33.60
21275;DHT22;36472;52.170;20.884;2024-01-15T12:26:17;25.10;33.90
21275;DHT22;36472;52.170;20.884;2024-01-15T12:28:46;25.10;33.80
21275;DHT22;36472;52.170;20.884;2024-01-15T12:31:15;25.20;33.70
21275;DHT22;36472;52.170;20.884;2024-01-15T12:33:44;25.10;34.10
21275;DHT22;36472;52.170;20.884;2024-01-15T12:36:14;25.20;34.50
21275;DHT22;36472;52.170;20.884;2024-01-15T12:38:44;25.00;34.70
21275;DHT22;36472;52.170;20.884;2024-01-15T12:41:15;25.00;34.80
21275;DHT22;36472;52.170;20.884;2024-01-15T12:43:44;25.00;34.50
21275;DHT22;36472;52.170;20.884;2024-01-15T12:46:14;25.10;34.60
21275;DHT22;36472;52.170;20.884;2024-01-15T12:48:43;25.00;34.50
21275;DHT22;36472;52.170;20.884;2024-01-15T12:51:13;25.00;34.60
21275;DHT22;36472;52.170;20.884;2024-01-15T12:53:43;25.00;34.20
21275;DHT22;36472;52.170;20.884;2024-01-15T12:56:14;25.10;33.90
21275;DHT22;36472;52.170;20.884;2024-01-15T12:58:43;24.90;33.60
21275;DHT22;36472;52.170;20.884;2024-01-15T13:01:12;24.80;33.70
21275;DHT22;36472;52.170;20.884;2024-01-15T13:03:41;25.00;33.90
21275;DHT22;36472;52.170;20.884;2024-01-15T13:06:11;24.90;34.60
21275;DHT22;36472;52.170;20.884;2024-01-15T13:08:40;25.00;35.00
21275;DHT22;36472;52.170;20.884;2024-01-15T13:11:09;25.00;35.10
21275;DHT22;36472;52.170;20.884;2024-01-15T13:13:40;25.00;35.20
21275;DHT22;36472;52.170;20.884;2024-01-15T13:16:09;25.10;35.20
21275;DHT22;36472;52.170;20.884;2024-01-15T13:18:38;25.10;35.10
21275;DHT22;36472;52.170;20.884;2024-01-15T13:21:07;25.20;35.10
21275;DHT22;36472;52.170;20.884;2024-01-15T13:23:36;25.00;34.90
21275;DHT22;36472;52.170;20.884;2024-01-15T13:26:05;25.00;34.80
21275;DHT22;36472;52.170;20.884;2024-01-15T13:28:34;25.00;34.80
21275;DHT22;36472;52.170;20.884;2024-01-15T13:31:05;25.00;34.60
21275;DHT22;36472;52.170;20.884;2024-01-15T13:33:34;25.00;34.70
21275;DHT22;36472;52.170;20.884;2024-01-15T13:36:04;25.00;34.60
21275;DHT22;36472;52.170;20.884;2024-01-15T13:38:35;25.00;34.20
21275;DHT22;36472;52.170;20.884;2024-01-15T13:41:05;25.00;34.30
21275;DHT22;36472;52.170;20.884;2024-01-15T13:43:34;24.90;34.50
21275;DHT22;36472;52.170;20.884;2024-01-15T13:46:05;24.80;34.30
21275;DHT22;36472;52.170;20.884;2024-01-15T13:48:33;25.00;34.40
21275;DHT22;36472;52.170;20.884;2024-01-15T13:51:03;24.90;34.30
21275;DHT22;36472;52.170;20.884;2024-01-15T13:53:32;24.80;34.40
21275;DHT22;36472;52.170;20.884;2024-01-15T13:56:02;24.90;34.30
21275;DHT22;36472;52.170;20.884;2024-01-15T13:58:32;25.00;34.10
21275;DHT22;36472;52.170;20.884;2024-01-15T14:01:01;25.10;33.90
21275;DHT22;36472;52.170;20.884;2024-01-15T14:03:33;25.10;34.00
21275;DHT22;36472;52.170;20.884;2024-01-15T14:06:02;25.20;33.90
21275;DHT22;36472;52.170;20.884;2024-01-15T14:08:36;25.20;34.00
21275;DHT22;36472;52.170;20.884;2024-01-15T14:11:05;24.90;33.60
21275;DHT22;36472;52.170;20.884;2024-01-15T14:13:34;25.10;33.80
21275;DHT22;36472;52.170;20.884;2024-01-15T14:16:03;25.10;33.50
21275;DHT22;36472;52.170;20.884;2024-01-15T14:18:34;24.90;33.60
21275;DHT22;36472;52.170;20.884;2024-01-15T14:21:04;25.10;33.60
21275;DHT22;36472;52.170;20.884;2024-01-15T14:23:33;24.90;33.30
21275;DHT22;36472;52.170;20.884;2024-01-15T14:26:02;24.80;33.60
21275;DHT22;36472;52.170;20.884;2024-01-15T14:28:31;24.90;33.70
21275;DHT22;36472;52.170;20.884;2024-01-15T14:31:00;25.00;33.40
21275;DHT22;36472;52.170;20.884;2024-01-15T14:33:30;24.90;33.50
21275;DHT22;36472;52.170;20.884;2024-01-15T14:36:02;25.00;33.50
21275;DHT22;36472;52.170;20.884;2024-01-15T14:38:32;25.00;33.50
21275;DHT22;36472;52.170;20.884;2024-01-15T14:41:02;25.00;33.20
21275;DHT22;36472;52.170;20.884;2024-01-15T14:43:31;24.70;33.40
21275;DHT22;36472;52.170;20.884;2024-01-15T14:46:00;24.80;33.40
21275;DHT22;36472;52.170;20.884;2024-01-15T14:48:29;25.00;33.50
21275;DHT22;36472;52.170;20.884;2024-01-15T14:50:59;25.00;33.50
21275;DHT22;36472;52.170;20.884;2024-01-15T14:53:29;25.10;33.70
21275;DHT22;36472;52.170;20.884;2024-01-15T14:55:58;25.10;33.50
21275;DHT22;36472;52.170;20.884;2024-01-15T14:58:29;25.10;33.40
21275;DHT22;36472;52.170;20.884;2024-01-15T15:00:59;25.10;33.50
21275;DHT22;36472;52.170;20.884;2024-01-15T15:03:29;25.10;33.10
21275;DHT22;36472;52.170;20.884;2024-01-15T15:05:59;25.00;32.90
21275;DHT22;36472;52.170;20.884;2024-01-15T15:08:30;25.00;32.60
21275;DHT22;36472;52.170;20.884;2024-01-15T15:11:00;24.90;32.90
21275;DHT22;36472;52.170;20.884;2024-01-15T15:13:29;25.00;33.00
21275;DHT22;36472;52.170;20.884;2024-01-15T15:16:11;24.80;32.90
21275;DHT22;36472;52.170;20.884;2024-01-15T15:18:41;24.90;32.90
21275;DHT22;36472;52.170;20.884;2024-01-15T15:21:11;24.80;32.90
21275;DHT22;36472;52.170;20.884;2024-01-15T15:23:42;24.60;32.80
21275;DHT22;36472;52.170;20.884;2024-01-15T15:26:12;24.80;33.00
21275;DHT22;36472;52.170;20.884;2024-01-15T15:28:41;24.90;32.90
21275;DHT22;36472;52.170;20.884;2024-01-15T15:31:10;24.70;32.90
21275;DHT22;36472;52.170;20.884;2024-01-15T15:33:39;24.90;32.90